sensor_id;sensor_type;location;lat;lon;timestamp;pressure;altitude;pressure_sealevel;temperature;humidity
33781;BME280;20097;50.832;19.100;2023-07-13T00:04:37;97924.91;;;20.02;100.00
33781;BME280;20097;50.832;19.100;2023-07-13T00:09:43;97921.47;;;20.02;100.00
33781;BME280;20097;50.832;19.100;2023-07-13T00:14:47;97931.25;;;20.01;100.00
33781;BME280;20097;50.832;19.100;2023-07-13T00:19:52;97932.59;;;20.04;100.00
33781;BME280;20097;50.832;19.100;2023-07-13T00:25:00;97938.72;;;20.04;100.00
33781;BME280;20097;50.832;19.100;2023-07-13T00:30:06;97938.88;;;19.98;100.00
33781;BME280;20097;50.832;19.100;2023-07-13T00:35:14;97958.78;;;20.00;100.00
33781;BME280;20097;50.832;19.100;2023-07-13T00:40:20;97957.41;;;19.98;100.00
33781;BME280;20097;50.832;19.100;2023-07-13T00:46:23;97948.50;;;20.04;100.00
33781;BME280;20097;50.832;19.100;2023-07-13T00:51:34;97948.75;;;20.02;100.00
33781;BME280;20097;50.832;19.100;2023-07-13T00:56:44;97930.75;;;20.04;100.00
33781;BME280;20097;50.832;19.100;2023-07-13T01:01:50;97934.38;;;19.98;100.00
33781;BME280;20097;50.832;19.100;2023-07-13T01:06:56;97930.69;;;19.99;100.00
33781;BME280;20097;50.832;19.100;2023-07-13T01:12:06;97938.88;;;19.98;100.00
33781;BME280;20097;50.832;19.100;2023-07-13T01:17:11;97947.16;;;20.01;100.00
33781;BME280;20097;50.832;19.100;2023-07-13T01:22:18;97959.75;;;19.94;100.00
33781;BME280;20097;50.832;19.100;2023-07-13T01:27:28;97958.16;;;19.93;100.00
33781;BME280;20097;50.832;19.100;2023-07-13T01:32:32;97971.31;;;19.88;100.00
33781;BME280;20097;50.832;19.100;2023-07-13T01:37:39;97979.25;;;19.88;100.00
33781;BME280;20097;50.832;19.100;2023-07-13T01:42:44;97999.97;;;19.91;100.00
33781;BME280;20097;50.832;19.100;2023-07-13T01:47:49;97986.25;;;19.94;100.00
33781;BME280;20097;50.832;19.100;2023-07-13T01:52:54;97974.84;;;19.94;100.00
33781;BME280;20097;50.832;19.100;2023-07-13T01:57:59;97967.59;;;19.89;100.00
33781;BME280;20097;50.832;19.100;2023-07-13T02:03:04;97970.34;;;19.94;100.00
33781;BME280;20097;50.832;19.100;2023-07-13T02:08:10;97956.53;;;19.92;100.00
33781;BME280;20097;50.832;19.100;2023-07-13T02:13:15;97948.59;;;19.92;100.00
33781;BME280;20097;50.832;19.100;2023-07-13T02:18:19;97949.88;;;19.90;100.00
33781;BME280;20097;50.832;19.100;2023-07-13T02:23:25;97964.72;;;19.91;100.00
33781;BME280;20097;50.832;19.100;2023-07-13T02:28:30;97959.66;;;19.89;100.00
33781;BME280;20097;50.832;19.100;2023-07-13T02:33:34;97960.22;;;19.91;100.00
33781;BME280;20097;50.832;19.100;2023-07-13T02:38:40;97962.97;;;19.96;100.00
33781;BME280;20097;50.832;19.100;2023-07-13T02:43:44;97950.13;;;20.05;100.00
33781;BME280;20097;50.832;19.100;2023-07-13T02:48:49;97950.13;;;20.05;100.00
33781;BME280;20097;50.832;19.100;2023-07-13T02:53:55;97935.97;;;19.83;100.00
33781;BME280;20097;50.832;19.100;2023-07-13T02:59:00;97952.78;;;19.88;100.00
33781;BME280;20097;50.832;19.100;2023-07-13T03:04:04;97954.75;;;19.81;100.00
33781;BME280;20097;50.832;19.100;2023-07-13T03:09:12;97957.16;;;19.83;100.00
33781;BME280;20097;50.832;19.100;2023-07-13T03:14:21;97955.97;;;19.74;100.00
33781;BME280;20097;50.832;19.100;2023-07-13T03:19:26;97972.28;;;19.82;100.00
33781;BME280;20097;50.832;19.100;2023-07-13T03:24:34;97985.28;;;19.84;100.00
33781;BME280;20097;50.832;19.100;2023-07-13T03:29:42;97958.34;;;19.59;100.00
33781;BME280;20097;50.832;19.100;2023-07-13T03:34:50;97955.81;;;19.36;100.00
33781;BME280;20097;50.832;19.100;2023-07-13T03:39:56;97905.44;;;19.02;100.00
33781;BME280;20097;50.832;19.100;2023-07-13T03:45:03;97896.38;;;18.98;100.00
33781;BME280;20097;50.832;19.100;2023-07-13T03:50:09;97885.75;;;19.10;100.00
33781;BME280;20097;50.832;19.100;2023-07-13T03:55:15;97879.09;;;19.07;100.00
33781;BME280;20097;50.832;19.100;2023-07-13T04:00:21;97900.84;;;18.98;100.00
33781;BME280;20097;50.832;19.100;2023-07-13T04:05:29;97895.56;;;18.98;100.00
33781;BME280;20097;50.832;19.100;2023-07-13T04:10:35;97902.00;;;19.02;100.00
33781;BME280;20097;50.832;19.100;2023-07-13T04:15:40;97907.28;;;19.02;100.00
33781;BME280;20097;50.832;19.100;2023-07-13T04:20:44;97923.03;;;19.08;100.00
33781;BME280;20097;50.832;19.100;2023-07-13T04:25:52;97932.03;;;19.24;100.00
33781;BME280;20097;50.832;19.100;2023-07-13T04:30:57;97937.53;;;19.34;100.00
33781;BME280;20097;50.832;19.100;2023-07-13T04:36:01;97946.97;;;19.42;100.00
33781;BME280;20097;50.832;19.100;2023-07-13T04:41:08;97954.91;;;19.42;100.00
33781;BME280;20097;50.832;19.100;2023-07-13T04:46:15;97954.91;;;19.42;100.00
33781;BME280;20097;50.832;19.100;2023-07-13T04:51:22;97938.28;;;19.46;100.00
33781;BME280;20097;50.832;19.100;2023-07-13T04:56:27;97946.19;;;19.58;100.00
33781;BME280;20097;50.832;19.100;2023-07-13T05:01:33;97951.41;;;19.69;100.00
33781;BME280;20097;50.832;19.100;2023-07-13T05:06:38;97942.00;;;19.78;100.00
33781;BME280;20097;50.832;19.100;2023-07-13T05:11:43;97934.88;;;19.95;100.00
33781;BME280;20097;50.832;19.100;2023-07-13T05:16:48;97939.38;;;20.11;100.00
33781;BME280;20097;50.832;19.100;2023-07-13T05:21:53;97955.41;;;20.21;100.00
33781;BME280;20097;50.832;19.100;2023-07-13T05:26:58;97959.84;;;20.32;100.00
33781;BME280;20097;50.832;19.100;2023-07-13T05:32:04;97965.91;;;20.50;100.00
33781;BME280;20097;50.832;19.100;2023-07-13T05:37:09;97966.75;;;20.72;100.00
33781;BME280;20097;50.832;19.100;2023-07-13T05:42:15;97961.31;;;20.83;100.00
33781;BME280;20097;50.832;19.100;2023-07-13T05:47:19;97955.28;;;20.88;100.00
33781;BME280;20097;50.832;19.100;2023-07-13T05:52:24;97951.22;;;21.02;100.00
33781;BME280;20097;50.832;19.100;2023-07-13T05:57:30;97961.75;;;21.18;100.00
33781;BME280;20097;50.832;19.100;2023-07-13T06:02:35;97967.28;;;21.38;100.00
33781;BME280;20097;50.832;19.100;2023-07-13T06:07:40;97959.44;;;21.53;100.00
33781;BME280;20097;50.832;19.100;2023-07-13T06:12:46;97953.59;;;21.78;100.00
33781;BME280;20097;50.832;19.100;2023-07-13T06:17:50;97963.25;;;21.89;100.00
33781;BME280;20097;50.832;19.100;2023-07-13T06:22:55;97964.72;;;22.02;100.00
33781;BME280;20097;50.832;19.100;2023-07-13T06:28:01;97966.94;;;22.15;100.00
33781;BME280;20097;50.832;19.100;2023-07-13T06:33:05;97973.19;;;22.35;100.00
33781;BME280;20097;50.832;19.100;2023-07-13T06:38:10;97978.69;;;22.60;100.00
33781;BME280;20097;50.832;19.100;2023-07-13T06:43:15;97988.03;;;22.68;100.00
33781;BME280;20097;50.832;19.100;2023-07-13T06:48:20;97989.91;;;22.72;100.00
33781;BME280;20097;50.832;19.100;2023-07-13T06:53:24;98000.91;;;22.86;100.00
33781;BME280;20097;50.832;19.100;2023-07-13T06:58:30;98006.03;;;22.97;100.00
33781;BME280;20097;50.832;19.100;2023-07-13T07:03:34;98006.38;;;23.21;100.00
33781;BME280;20097;50.832;19.100;2023-07-13T07:08:39;97999.81;;;23.34;100.00
33781;BME280;20097;50.832;19.100;2023-07-13T07:13:45;98013.41;;;23.47;100.00
33781;BME280;20097;50.832;19.100;2023-07-13T07:18:49;98015.31;;;23.57;100.00
33781;BME280;20097;50.832;19.100;2023-07-13T07:23:53;98031.50;;;23.30;100.00
33781;BME280;20097;50.832;19.100;2023-07-13T07:28:59;98042.88;;;23.26;100.00
33781;BME280;20097;50.832;19.100;2023-07-13T07:34:06;98048.19;;;23.26;100.00
33781;BME280;20097;50.832;19.100;2023-07-13T07:39:10;98049.59;;;23.33;100.00
33781;BME280;20097;50.832;19.100;2023-07-13T07:44:16;98052.38;;;23.06;100.00
33781;BME280;20097;50.832;19.100;2023-07-13T07:49:21;98056.78;;;22.81;100.00
33781;BME280;20097;50.832;19.100;2023-07-13T07:54:25;98045.69;;;22.52;100.00
33781;BME280;20097;50.832;19.100;2023-07-13T07:59:51;98054.72;;;21.45;100.00
33781;BME280;20097;50.832;19.100;2023-07-13T08:04:58;98076.44;;;20.99;100.00
33781;BME280;20097;50.832;19.100;2023-07-13T08:10:07;98087.31;;;20.64;100.00
33781;BME280;20097;50.832;19.100;2023-07-13T08:15:16;98087.47;;;20.58;100.00
33781;BME280;20097;50.832;19.100;2023-07-13T08:20:23;98084.53;;;20.09;100.00
33781;BME280;20097;50.832;19.100;2023-07-13T08:25:27;98092.53;;;20.26;100.00
33781;BME280;20097;50.832;19.100;2023-07-13T08:30:33;98080.28;;;20.08;100.00
33781;BME280;20097;50.832;19.100;2023-07-13T08:35:39;98080.84;;;20.10;100.00
33781;BME280;20097;50.832;19.100;2023-07-13T08:40:45;98089.34;;;20.12;100.00
33781;BME280;20097;50.832;19.100;2023-07-13T08:46:08;98094.94;;;20.27;100.00
33781;BME280;20097;50.832;19.100;2023-07-13T08:51:28;98095.72;;;20.11;100.00
33781;BME280;20097;50.832;19.100;2023-07-13T08:56:35;98094.84;;;19.66;100.00
33781;BME280;20097;50.832;19.100;2023-07-13T09:07:24;98106.38;;;19.21;100.00
33781;BME280;20097;50.832;19.100;2023-07-13T09:12:44;98122.94;;;18.93;100.00
33781;BME280;20097;50.832;19.100;2023-07-13T09:17:52;98133.75;;;18.57;100.00
33781;BME280;20097;50.832;19.100;2023-07-13T09:23:00;98146.88;;;18.34;100.00
33781;BME280;20097;50.832;19.100;2023-07-13T09:28:12;98141.50;;;18.40;100.00
33781;BME280;20097;50.832;19.100;2023-07-13T09:33:20;98145.97;;;18.40;100.00
33781;BME280;20097;50.832;19.100;2023-07-13T09:38:28;98137.91;;;17.94;100.00
33781;BME280;20097;50.832;19.100;2023-07-13T09:43:35;98135.53;;;17.56;100.00
33781;BME280;20097;50.832;19.100;2023-07-13T09:48:43;98151.28;;;17.44;100.00
33781;BME280;20097;50.832;19.100;2023-07-13T09:53:47;98178.66;;;17.07;100.00
33781;BME280;20097;50.832;19.100;2023-07-13T09:58:51;98196.97;;;17.02;100.00
33781;BME280;20097;50.832;19.100;2023-07-13T10:03:57;98193.94;;;16.74;100.00
33781;BME280;20097;50.832;19.100;2023-07-13T10:09:02;98195.03;;;16.67;100.00
33781;BME280;20097;50.832;19.100;2023-07-13T10:14:13;98180.31;;;16.77;100.00
33781;BME280;20097;50.832;19.100;2023-07-13T10:19:23;98169.50;;;16.61;100.00
33781;BME280;20097;50.832;19.100;2023-07-13T10:24:33;98176.25;;;16.57;100.00
33781;BME280;20097;50.832;19.100;2023-07-13T10:29:46;98184.78;;;16.77;100.00
33781;BME280;20097;50.832;19.100;2023-07-13T10:34:53;98178.06;;;16.56;100.00
33781;BME280;20097;50.832;19.100;2023-07-13T10:40:01;98175.59;;;16.86;100.00
33781;BME280;20097;50.832;19.100;2023-07-13T10:45:14;98165.66;;;16.88;100.00
33781;BME280;20097;50.832;19.100;2023-07-13T10:50:24;98161.16;;;16.88;100.00
33781;BME280;20097;50.832;19.100;2023-07-13T10:55:38;98159.88;;;16.97;100.00
33781;BME280;20097;50.832;19.100;2023-07-13T11:00:48;98167.50;;;17.05;100.00
33781;BME280;20097;50.832;19.100;2023-07-13T11:06:08;98146.09;;;16.95;100.00
33781;BME280;20097;50.832;19.100;2023-07-13T11:11:37;98136.69;;;17.06;100.00
33781;BME280;20097;50.832;19.100;2023-07-13T11:16:44;98138.06;;;17.26;100.00
33781;BME280;20097;50.832;19.100;2023-07-13T11:22:13;98119.78;;;17.49;100.00
33781;BME280;20097;50.832;19.100;2023-07-13T11:27:36;98106.34;;;17.69;100.00
33781;BME280;20097;50.832;19.100;2023-07-13T11:32:41;98114.75;;;17.77;100.00
33781;BME280;20097;50.832;19.100;2023-07-13T11:37:47;98123.34;;;18.03;100.00
33781;BME280;20097;50.832;19.100;2023-07-13T11:42:52;98132.59;;;18.23;100.00
33781;BME280;20097;50.832;19.100;2023-07-13T11:47:56;98124.13;;;18.33;100.00
33781;BME280;20097;50.832;19.100;2023-07-13T11:53:08;98126.09;;;18.37;100.00
33781;BME280;20097;50.832;19.100;2023-07-13T11:58:21;98130.63;;;18.60;100.00
33781;BME280;20097;50.832;19.100;2023-07-13T12:03:28;98164.78;;;18.73;100.00
33781;BME280;20097;50.832;19.100;2023-07-13T12:08:39;98197.69;;;18.88;100.00
33781;BME280;20097;50.832;19.100;2023-07-13T12:13:45;98202.59;;;18.62;100.00
33781;BME280;20097;50.832;19.100;2023-07-13T12:18:53;98206.44;;;18.89;100.00
33781;BME280;20097;50.832;19.100;2023-07-13T12:24:00;98205.03;;;18.98;100.00
33781;BME280;20097;50.832;19.100;2023-07-13T12:29:07;98215.19;;;19.12;100.00
33781;BME280;20097;50.832;19.100;2023-07-13T12:34:14;98207.34;;;19.06;100.00
33781;BME280;20097;50.832;19.100;2023-07-13T12:39:23;98197.22;;;18.91;100.00
33781;BME280;20097;50.832;19.100;2023-07-13T12:44:31;98205.28;;;19.20;100.00
33781;BME280;20097;50.832;19.100;2023-07-13T12:49:42;98217.38;;;19.04;100.00
33781;BME280;20097;50.832;19.100;2023-07-13T12:54:58;98210.94;;;19.23;100.00
33781;BME280;20097;50.832;19.100;2023-07-13T13:00:31;98212.06;;;19.62;100.00
33781;BME280;20097;50.832;19.100;2023-07-13T13:05:36;98214.63;;;20.08;100.00
33781;BME280;20097;50.832;19.100;2023-07-13T13:10:42;98213.81;;;20.47;100.00
33781;BME280;20097;50.832;19.100;2023-07-13T13:15:48;98218.88;;;20.82;100.00
33781;BME280;20097;50.832;19.100;2023-07-13T13:20:53;98228.13;;;20.63;100.00
33781;BME280;20097;50.832;19.100;2023-07-13T13:25:58;98232.72;;;20.84;100.00
33781;BME280;20097;50.832;19.100;2023-07-13T13:31:03;98234.81;;;20.65;100.00
33781;BME280;20097;50.832;19.100;2023-07-13T13:36:16;98232.16;;;20.37;100.00
33781;BME280;20097;50.832;19.100;2023-07-13T13:41:22;98254.78;;;20.56;100.00
33781;BME280;20097;50.832;19.100;2023-07-13T13:46:27;98253.09;;;20.50;100.00
33781;BME280;20097;50.832;19.100;2023-07-13T13:51:33;98244.13;;;20.68;100.00
33781;BME280;20097;50.832;19.100;2023-07-13T13:56:41;98249.72;;;21.16;100.00
33781;BME280;20097;50.832;19.100;2023-07-13T14:01:47;98261.34;;;21.81;100.00
33781;BME280;20097;50.832;19.100;2023-07-13T14:06:52;98256.44;;;23.23;100.00
33781;BME280;20097;50.832;19.100;2023-07-13T14:11:58;98255.47;;;23.29;100.00
33781;BME280;20097;50.832;19.100;2023-07-13T14:17:03;98259.25;;;22.74;100.00
33781;BME280;20097;50.832;19.100;2023-07-13T14:22:07;98260.97;;;23.17;100.00
33781;BME280;20097;50.832;19.100;2023-07-13T14:27:13;98251.63;;;23.51;100.00
33781;BME280;20097;50.832;19.100;2023-07-13T14:32:17;98260.00;;;24.26;100.00
33781;BME280;20097;50.832;19.100;2023-07-13T14:37:22;98263.91;;;24.71;96.84
33781;BME280;20097;50.832;19.100;2023-07-13T14:42:27;98273.00;;;25.00;93.80
33781;BME280;20097;50.832;19.100;2023-07-13T14:47:32;98264.16;;;24.74;94.47
33781;BME280;20097;50.832;19.100;2023-07-13T14:52:36;98247.50;;;25.98;79.11
33781;BME280;20097;50.832;19.100;2023-07-13T14:57:42;98236.06;;;25.82;81.23
33781;BME280;20097;50.832;19.100;2023-07-13T15:02:50;98233.94;;;26.43;88.67
33781;BME280;20097;50.832;19.100;2023-07-13T15:07:59;98229.22;;;25.01;86.16
33781;BME280;20097;50.832;19.100;2023-07-13T15:13:16;98229.22;;;23.94;98.95
33781;BME280;20097;50.832;19.100;2023-07-13T15:18:24;98231.88;;;24.91;93.33
33781;BME280;20097;50.832;19.100;2023-07-13T15:23:30;98232.06;;;24.54;87.48
33781;BME280;20097;50.832;19.100;2023-07-13T15:28:36;98241.75;;;25.45;86.84
33781;BME280;20097;50.832;19.100;2023-07-13T15:33:40;98230.31;;;26.19;73.62
33781;BME280;20097;50.832;19.100;2023-07-13T15:38:46;98230.84;;;27.03;74.71
33781;BME280;20097;50.832;19.100;2023-07-13T15:43:54;98232.66;;;26.30;75.41
33781;BME280;20097;50.832;19.100;2023-07-13T15:49:01;98238.81;;;27.13;66.43
33781;BME280;20097;50.832;19.100;2023-07-13T15:54:08;98233.44;;;26.36;75.29
33781;BME280;20097;50.832;19.100;2023-07-13T15:59:17;98235.06;;;25.33;81.02
33781;BME280;20097;50.832;19.100;2023-07-13T16:04:22;98225.34;;;24.21;76.63
33781;BME280;20097;50.832;19.100;2023-07-13T16:09:26;98226.25;;;23.90;79.80
33781;BME280;20097;50.832;19.100;2023-07-13T16:14:32;98235.00;;;23.76;95.16
33781;BME280;20097;50.832;19.100;2023-07-13T16:19:36;98240.03;;;23.31;86.73
33781;BME280;20097;50.832;19.100;2023-07-13T16:24:41;98251.19;;;22.96;93.08
33781;BME280;20097;50.832;19.100;2023-07-13T16:29:50;98256.19;;;22.61;95.40
33781;BME280;20097;50.832;19.100;2023-07-13T16:34:54;98219.63;;;22.03;100.00
33781;BME280;20097;50.832;19.100;2023-07-13T16:40:00;98225.13;;;21.97;100.00
33781;BME280;20097;50.832;19.100;2023-07-13T16:45:13;98231.63;;;21.84;100.00
33781;BME280;20097;50.832;19.100;2023-07-13T16:50:20;98232.72;;;21.88;100.00
33781;BME280;20097;50.832;19.100;2023-07-13T16:55:27;98238.84;;;21.89;100.00
33781;BME280;20097;50.832;19.100;2023-07-13T17:00:34;98282.63;;;21.64;100.00
33781;BME280;20097;50.832;19.100;2023-07-13T17:05:42;98240.22;;;21.53;100.00
33781;BME280;20097;50.832;19.100;2023-07-13T17:10:47;98252.78;;;21.08;100.00
33781;BME280;20097;50.832;19.100;2023-07-13T17:15:56;98256.50;;;21.07;100.00
33781;BME280;20097;50.832;19.100;2023-07-13T17:21:02;98264.47;;;20.79;100.00
33781;BME280;20097;50.832;19.100;2023-07-13T17:26:07;98272.25;;;20.69;100.00
33781;BME280;20097;50.832;19.100;2023-07-13T17:31:19;98259.91;;;20.46;100.00
33781;BME280;20097;50.832;19.100;2023-07-13T17:36:25;98250.53;;;20.27;100.00
33781;BME280;20097;50.832;19.100;2023-07-13T17:41:29;98247.25;;;20.08;100.00
33781;BME280;20097;50.832;19.100;2023-07-13T17:46:35;98247.03;;;19.98;100.00
33781;BME280;20097;50.832;19.100;2023-07-13T17:51:39;98239.69;;;19.77;100.00
33781;BME280;20097;50.832;19.100;2023-07-13T17:56:45;98235.31;;;19.71;100.00
33781;BME280;20097;50.832;19.100;2023-07-13T18:01:50;98244.19;;;19.65;100.00
33781;BME280;20097;50.832;19.100;2023-07-13T18:06:55;98249.03;;;19.57;100.00
33781;BME280;20097;50.832;19.100;2023-07-13T18:12:10;98254.44;;;19.50;100.00
33781;BME280;20097;50.832;19.100;2023-07-13T18:17:22;98272.19;;;19.38;100.00
33781;BME280;20097;50.832;19.100;2023-07-13T18:22:26;98266.50;;;19.23;100.00
33781;BME280;20097;50.832;19.100;2023-07-13T18:27:33;98264.91;;;19.10;100.00
33781;BME280;20097;50.832;19.100;2023-07-13T18:32:39;98262.69;;;18.96;100.00
33781;BME280;20097;50.832;19.100;2023-07-13T18:37:45;98255.97;;;18.82;100.00
33781;BME280;20097;50.832;19.100;2023-07-13T18:42:49;98263.09;;;18.70;100.00
33781;BME280;20097;50.832;19.100;2023-07-13T18:47:56;98264.81;;;18.46;100.00
33781;BME280;20097;50.832;19.100;2023-07-13T18:53:01;98273.03;;;18.38;100.00
33781;BME280;20097;50.832;19.100;2023-07-13T18:58:06;98280.13;;;18.26;100.00
33781;BME280;20097;50.832;19.100;2023-07-13T19:03:16;98290.97;;;18.18;100.00
33781;BME280;20097;50.832;19.100;2023-07-13T19:08:22;98292.28;;;18.27;100.00
33781;BME280;20097;50.832;19.100;2023-07-13T19:13:30;98292.06;;;18.29;100.00
33781;BME280;20097;50.832;19.100;2023-07-13T19:18:38;98300.06;;;18.22;100.00
33781;BME280;20097;50.832;19.100;2023-07-13T19:23:45;98306.25;;;18.16;100.00
33781;BME280;20097;50.832;19.100;2023-07-13T19:28:51;98309.97;;;18.09;100.00
33781;BME280;20097;50.832;19.100;2023-07-13T19:33:59;98315.50;;;18.07;100.00
33781;BME280;20097;50.832;19.100;2023-07-13T19:39:21;98317.53;;;18.05;100.00
33781;BME280;20097;50.832;19.100;2023-07-13T19:44:27;98324.91;;;18.03;100.00
33781;BME280;20097;50.832;19.100;2023-07-13T19:49:33;98333.47;;;17.99;100.00
33781;BME280;20097;50.832;19.100;2023-07-13T19:54:38;98319.09;;;17.95;100.00
33781;BME280;20097;50.832;19.100;2023-07-13T19:59:44;98321.56;;;17.90;100.00
33781;BME280;20097;50.832;19.100;2023-07-13T20:04:54;98333.81;;;17.84;100.00
33781;BME280;20097;50.832;19.100;2023-07-13T20:10:27;98342.69;;;17.71;100.00
33781;BME280;20097;50.832;19.100;2023-07-13T20:15:31;98339.16;;;17.59;100.00
33781;BME280;20097;50.832;19.100;2023-07-13T20:20:39;98346.03;;;17.60;100.00
33781;BME280;20097;50.832;19.100;2023-07-13T20:25:48;98339.22;;;17.53;100.00
33781;BME280;20097;50.832;19.100;2023-07-13T20:30:53;98342.06;;;17.51;100.00
33781;BME280;20097;50.832;19.100;2023-07-13T20:36:03;98346.75;;;17.49;100.00
33781;BME280;20097;50.832;19.100;2023-07-13T20:41:11;98354.06;;;17.47;100.00
33781;BME280;20097;50.832;19.100;2023-07-13T20:46:17;98355.47;;;17.43;100.00
33781;BME280;20097;50.832;19.100;2023-07-13T20:51:23;98353.91;;;17.36;100.00
33781;BME280;20097;50.832;19.100;2023-07-13T20:56:29;98361.88;;;17.29;100.00
33781;BME280;20097;50.832;19.100;2023-07-13T21:01:35;98371.31;;;17.19;100.00
33781;BME280;20097;50.832;19.100;2023-07-13T21:06:43;98384.16;;;17.09;100.00
33781;BME280;20097;50.832;19.100;2023-07-13T21:11:47;98387.63;;;17.03;100.00
33781;BME280;20097;50.832;19.100;2023-07-13T21:16:51;98376.13;;;16.91;100.00
33781;BME280;20097;50.832;19.100;2023-07-13T21:21:57;98377.22;;;16.77;100.00
33781;BME280;20097;50.832;19.100;2023-07-13T21:27:03;98378.88;;;16.71;100.00
33781;BME280;20097;50.832;19.100;2023-07-13T21:32:13;98380.72;;;16.64;100.00
33781;BME280;20097;50.832;19.100;2023-07-13T21:37:20;98371.03;;;16.58;100.00
33781;BME280;20097;50.832;19.100;2023-07-13T21:42:25;98392.13;;;16.52;100.00
33781;BME280;20097;50.832;19.100;2023-07-13T21:47:29;98390.91;;;16.41;100.00
33781;BME280;20097;50.832;19.100;2023-07-13T21:52:35;98383.25;;;16.33;100.00
33781;BME280;20097;50.832;19.100;2023-07-13T21:57:40;98373.56;;;16.20;100.00
33781;BME280;20097;50.832;19.100;2023-07-13T22:02:45;98376.44;;;16.12;100.00
33781;BME280;20097;50.832;19.100;2023-07-13T22:07:51;98367.50;;;16.13;100.00
33781;BME280;20097;50.832;19.100;2023-07-13T22:12:55;98372.41;;;16.03;100.00
33781;BME280;20097;50.832;19.100;2023-07-13T22:18:05;98366.94;;;16.05;100.00
33781;BME280;20097;50.832;19.100;2023-07-13T22:23:19;98374.41;;;16.14;100.00
33781;BME280;20097;50.832;19.100;2023-07-13T22:28:27;98382.50;;;16.13;100.00
33781;BME280;20097;50.832;19.100;2023-07-13T22:33:31;98379.47;;;16.16;100.00
33781;BME280;20097;50.832;19.100;2023-07-13T22:38:37;98389.78;;;16.17;100.00
33781;BME280;20097;50.832;19.100;2023-07-13T22:43:43;98398.69;;;16.23;100.00
33781;BME280;20097;50.832;19.100;2023-07-13T22:48:54;98401.09;;;16.31;100.00
33781;BME280;20097;50.832;19.100;2023-07-13T22:54:00;98401.91;;;16.31;100.00
33781;BME280;20097;50.832;19.100;2023-07-13T22:59:05;98394.22;;;16.23;100.00
33781;BME280;20097;50.832;19.100;2023-07-13T23:04:20;98401.53;;;16.08;100.00
33781;BME280;20097;50.832;19.100;2023-07-13T23:09:31;98393.47;;;16.03;100.00
33781;BME280;20097;50.832;19.100;2023-07-13T23:14:36;98395.94;;;15.85;100.00
33781;BME280;20097;50.832;19.100;2023-07-13T23:19:40;98393.09;;;15.80;100.00
33781;BME280;20097;50.832;19.100;2023-07-13T23:24:46;98385.81;;;15.69;100.00
33781;BME280;20097;50.832;19.100;2023-07-13T23:29:50;98392.69;;;15.64;100.00
33781;BME280;20097;50.832;19.100;2023-07-13T23:34:54;98383.97;;;15.50;100.00
33781;BME280;20097;50.832;19.100;2023-07-13T23:40:00;98398.56;;;15.46;100.00
33781;BME280;20097;50.832;19.100;2023-07-13T23:45:08;98386.16;;;15.34;100.00
33781;BME280;20097;50.832;19.100;2023-07-13T23:50:18;98378.47;;;15.32;100.00
33781;BME280;20097;50.832;19.100;2023-07-13T23:55:28;98381.72;;;15.28;100.00
